Pike, Pennsylvania
Current Conditions -  °F | °C
As of 12:54 PM on Wednesday 28 Jan 2015 (Local Time) from KRDG Reporting Station
Clear Clear  
Wind Chill: 16°   Ceiling: Unl
Heat Index: 28°   Visibility: 10mi
Dew Point:   Wind: 16mph
Humidity: 36%   Direction: 320°NW
Pressure: 30.15"   Gusts: NA
Location:  40.3836°N, 75.7884°W
Report Text: KRDG 281754Z 32014KT 10SM CLR M02/M16 A3015 RMK AO2 SLP220 T10221156 11022 21089 58003
Loading
Personal Weather Stations






























Interactive Weather Map New forecast layout! Learn more

10-Day Weather Forecast

Advertisements
Track Severe Weather on mobile